createdAt,value
2016-08-04T00:00:00.182Z,1000.13
2016-08-04T00:01:00.185Z,1000.13
2016-08-04T00:02:00.396Z,1000.14
2016-08-04T00:03:00.128Z,1000.15
2016-08-04T00:04:00.944Z,1000.21
2016-08-04T00:05:00.152Z,1000.12
2016-08-04T00:06:00.584Z,1000.16
2016-08-04T00:07:00.741Z,1000.1
2016-08-04T00:08:00.627Z,1000.12
2016-08-04T00:09:00.606Z,1000.13
2016-08-04T00:10:00.769Z,1000.12
2016-08-04T00:11:00.733Z,1000.08
2016-08-04T00:12:00.728Z,1000.08
2016-08-04T00:13:00.529Z,1000.07
2016-08-04T00:14:00.311Z,1000.07
2016-08-04T00:15:00.370Z,1000.02
2016-08-04T00:16:00.776Z,1000.03
2016-08-04T00:17:00.674Z,1000.05
2016-08-04T00:18:00.695Z,1000
2016-08-04T00:19:00.610Z,1000.04
2016-08-04T00:20:01.329Z,1000.05
2016-08-04T00:21:00.661Z,1000.04
2016-08-04T00:22:00.851Z,1000.12
2016-08-04T00:23:00.850Z,1000.17
2016-08-04T00:24:00.700Z,1000.17
2016-08-04T00:25:01.281Z,1000.19
2016-08-04T00:26:01.195Z,1000.17
2016-08-04T00:27:00.653Z,1000.18
2016-08-04T00:28:00.885Z,1000.19
2016-08-04T00:29:00.997Z,1000.19
2016-08-04T00:30:00.766Z,1000.17
2016-08-04T00:31:00.747Z,1000.12
2016-08-04T00:32:01.113Z,1000.08
2016-08-04T00:33:00.909Z,1000.11
2016-08-04T00:34:01.559Z,1000.08
2016-08-04T00:35:01.302Z,1000.1
2016-08-04T00:36:00.927Z,1000.08
2016-08-04T00:37:00.903Z,1000.09
2016-08-04T00:38:01.307Z,1000.07
2016-08-04T00:39:01.302Z,1000.1
2016-08-04T00:40:01.298Z,1000.12
2016-08-04T00:41:01.207Z,1000.12
2016-08-04T00:42:01.517Z,1000.11
2016-08-04T00:43:01.152Z,1000.1
2016-08-04T00:44:01.284Z,1000.14
2016-08-04T00:45:01.280Z,1000.15
2016-08-04T00:46:01.109Z,1000.19
2016-08-04T00:47:01.212Z,1000.19
2016-08-04T00:48:01.642Z,1000.24
2016-08-04T00:49:01.445Z,1000.28
2016-08-04T00:50:01.503Z,1000.35
2016-08-04T00:51:01.310Z,1000.46
2016-08-04T00:52:01.446Z,1000.64
2016-08-04T00:53:01.333Z,1000.73
2016-08-04T00:54:02.176Z,1000.87
2016-08-04T00:55:01.567Z,1000.97
2016-08-04T00:56:02.147Z,1000.93
2016-08-04T00:57:01.361Z,1000.84
2016-08-04T00:58:01.798Z,1000.87
2016-08-04T00:59:01.464Z,1000.88
2016-08-04T01:00:01.685Z,1000.95
2016-08-04T01:01:02.183Z,1000.86
2016-08-04T01:02:02.069Z,1000.94
2016-08-04T01:03:01.980Z,1000.91
2016-08-04T01:04:01.775Z,1000.94
2016-08-04T01:05:01.829Z,1000.94
2016-08-04T01:06:02.030Z,1000.93
2016-08-04T01:07:02.074Z,1000.94
2016-08-04T01:08:02.273Z,1000.84
2016-08-04T01:09:01.800Z,1000.83
2016-08-04T01:10:01.921Z,1000.79
2016-08-04T01:11:02.126Z,1000.77
2016-08-04T01:12:01.930Z,1000.77
2016-08-04T01:13:02.111Z,1000.8
2016-08-04T01:14:02.237Z,1000.81
2016-08-04T01:15:02.434Z,1000.81
2016-08-04T01:16:02.189Z,1000.8
2016-08-04T01:17:02.232Z,1000.74
2016-08-04T01:18:02.542Z,1000.71
2016-08-04T01:19:02.216Z,1000.67
2016-08-04T01:20:02.568Z,1000.61
2016-08-04T01:21:02.110Z,1000.58
2016-08-04T01:22:02.139Z,1000.6
2016-08-04T01:23:02.044Z,1000.55
2016-08-04T01:24:03.149Z,1000.61
2016-08-04T01:25:02.346Z,1000.62
2016-08-04T01:26:02.646Z,1000.59
2016-08-04T01:27:02.378Z,1000.54
2016-08-04T01:28:02.175Z,1000.5
2016-08-04T01:29:04.173Z,1000.5
2016-08-04T01:30:02.865Z,1000.48
2016-08-04T01:31:02.781Z,1000.51
2016-08-04T01:32:02.402Z,1000.49
2016-08-04T01:33:02.758Z,1000.47
2016-08-04T01:34:02.558Z,1000.47
2016-08-04T01:35:02.619Z,1000.43
2016-08-04T01:36:02.746Z,1000.44
2016-08-04T01:37:02.939Z,1000.47
2016-08-04T01:38:02.468Z,1000.46
2016-08-04T01:39:02.585Z,1000.43
2016-08-04T01:40:03.066Z,1000.41
2016-08-04T01:41:02.732Z,1000.44
2016-08-04T01:42:02.802Z,1000.45
2016-08-04T01:43:02.908Z,1000.49
2016-08-04T01:44:02.804Z,1000.49
2016-08-04T01:45:03.879Z,1000.49
2016-08-04T01:46:02.985Z,1000.47
2016-08-04T01:47:03.147Z,1000.49
2016-08-04T01:48:03.592Z,1000.5
2016-08-04T01:49:02.975Z,1000.49
2016-08-04T01:51:03.072Z,1000.53
2016-08-04T01:52:02.971Z,1000.53
2016-08-04T01:53:03.291Z,1000.49
2016-08-04T01:54:03.543Z,1000.48
2016-08-04T01:55:03.201Z,1000.45
2016-08-04T01:56:03.690Z,1000.47
2016-08-04T01:57:02.926Z,1000.47
2016-08-04T01:58:03.229Z,1000.5
2016-08-04T01:59:03.097Z,1000.46
2016-08-04T02:00:03.617Z,1000.42
2016-08-04T02:01:03.173Z,1000.46
2016-08-04T02:02:03.337Z,1000.46
2016-08-04T02:03:03.086Z,1000.46
2016-08-04T02:04:03.217Z,1000.46
2016-08-04T02:06:03.434Z,1000.46
2016-08-04T02:07:03.561Z,1000.44
2016-08-04T02:08:03.820Z,1000.43
2016-08-04T02:09:03.796Z,1000.44
2016-08-04T02:10:04.105Z,1000.41
2016-08-04T02:11:03.706Z,1000.41
2016-08-04T02:12:03.692Z,1000.4
2016-08-04T02:13:03.911Z,1000.42
2016-08-04T02:14:03.752Z,1000.4
2016-08-04T02:15:03.736Z,1000.41
2016-08-04T02:16:03.927Z,1000.42
2016-08-04T02:17:03.966Z,1000.4
2016-08-04T02:18:03.958Z,1000.37
2016-08-04T02:19:04.242Z,1000.36
2016-08-04T02:20:04.303Z,1000.38
2016-08-04T02:21:03.908Z,1000.39
2016-08-04T02:22:03.656Z,1000.37
2016-08-04T02:23:03.769Z,1000.38
2016-08-04T02:24:04.058Z,1000.43
2016-08-04T02:25:04.147Z,1000.44
2016-08-04T02:26:04.069Z,1000.39
2016-08-04T02:27:03.954Z,1000.39
2016-08-04T02:28:03.975Z,1000.38
2016-08-04T02:29:04.047Z,1000.41
2016-08-04T02:30:04.554Z,1000.41
2016-08-04T02:31:03.929Z,1000.4
2016-08-04T02:32:04.126Z,1000.41
2016-08-04T02:33:04.293Z,1000.45
2016-08-04T02:34:03.923Z,1000.45
2016-08-04T02:35:04.312Z,1000.45
2016-08-04T02:36:04.467Z,1000.46
2016-08-04T02:37:04.351Z,1000.47
2016-08-04T02:38:04.392Z,1000.46
2016-08-04T02:39:04.453Z,1000.43
2016-08-04T02:40:04.091Z,1000.43
2016-08-04T02:41:04.006Z,1000.38
2016-08-04T02:42:04.349Z,1000.35
2016-08-04T02:43:04.713Z,1000.29
2016-08-04T02:44:04.785Z,1000.28
2016-08-04T02:45:04.340Z,1000.28
2016-08-04T02:46:04.347Z,1000.29
2016-08-04T02:47:04.471Z,1000.3
2016-08-04T02:48:04.743Z,1000.32
2016-08-04T02:49:04.540Z,1000.31
2016-08-04T02:50:04.596Z,1000.36
2016-08-04T02:51:04.427Z,1000.34
2016-08-04T02:52:04.454Z,1000.34
2016-08-04T02:53:04.752Z,1000.27
2016-08-04T02:54:04.877Z,1000.28
2016-08-04T02:55:04.408Z,1000.27
2016-08-04T02:56:04.385Z,1000.29
2016-08-04T02:57:05.088Z,1000.28
2016-08-04T02:58:05.152Z,1000.33
2016-08-04T02:59:04.654Z,1000.37
2016-08-04T03:00:04.805Z,1000.36
2016-08-04T03:01:04.828Z,1000.42
2016-08-04T03:02:05.109Z,1000.37
2016-08-04T03:03:05.315Z,1000.38
2016-08-04T03:04:04.775Z,1000.4
2016-08-04T03:05:05.181Z,1000.42
2016-08-04T03:06:04.816Z,1000.38
2016-08-04T03:07:05.054Z,1000.36
2016-08-04T03:08:04.952Z,1000.38
2016-08-04T03:09:05.242Z,1000.41
2016-08-04T03:10:05.162Z,1000.36
2016-08-04T03:11:05.040Z,1000.36
2016-08-04T03:12:04.928Z,1000.34
2016-08-04T03:13:05.125Z,1000.27
2016-08-04T03:14:04.964Z,1000.22
2016-08-04T03:15:04.914Z,1000.26
2016-08-04T03:16:05.207Z,1000.28
2016-08-04T03:17:05.645Z,1000.32
2016-08-04T03:18:05.163Z,1000.32
2016-08-04T03:19:05.104Z,1000.29
2016-08-04T03:20:05.337Z,1000.28
2016-08-04T03:21:05.079Z,1000.33
2016-08-04T03:22:05.322Z,1000.29
2016-08-04T03:23:05.064Z,1000.23
2016-08-04T03:24:05.589Z,1000.22
2016-08-04T03:25:05.230Z,1000.2
2016-08-04T03:26:05.492Z,1000.15
2016-08-04T03:27:05.240Z,1000.22
2016-08-04T03:28:05.379Z,1000.28
2016-08-04T03:29:05.299Z,1000.28
2016-08-04T03:30:05.217Z,1000.28
2016-08-04T03:31:05.861Z,1000.22
2016-08-04T03:32:05.830Z,1000.2
2016-08-04T03:33:05.928Z,1000.18
2016-08-04T03:34:05.453Z,1000.16
2016-08-04T03:35:05.753Z,1000.16
2016-08-04T03:36:05.564Z,1000.12
2016-08-04T03:37:06.477Z,1000.08
2016-08-04T03:38:06.218Z,1000.13
2016-08-04T03:39:05.549Z,1000.18
2016-08-04T03:40:05.994Z,1000.13
2016-08-04T03:41:06.370Z,1000.2
2016-08-04T03:42:05.858Z,1000.27
2016-08-04T03:43:05.706Z,1000.28
2016-08-04T03:44:05.790Z,1000.3
2016-08-04T03:45:05.861Z,1000.26
2016-08-04T03:46:06.159Z,1000.29
2016-08-04T03:47:06.265Z,1000.32
2016-08-04T03:48:06.312Z,1000.32
2016-08-04T03:49:05.943Z,1000.3
2016-08-04T03:50:06.143Z,1000.3
2016-08-04T03:51:06.361Z,1000.23
2016-08-04T03:52:05.913Z,1000.23
2016-08-04T03:53:06.328Z,1000.17
2016-08-04T03:54:06.151Z,1000.1
2016-08-04T03:55:06.530Z,1000.03
2016-08-04T03:56:06.305Z,999.95
2016-08-04T03:57:06.300Z,999.98
2016-08-04T03:58:06.468Z,1000.02
2016-08-04T03:59:06.110Z,1000.09
2016-08-04T04:00:06.211Z,1000.05
2016-08-04T04:01:06.331Z,1000.1
2016-08-04T04:02:06.192Z,1000.06
2016-08-04T04:03:06.413Z,1000.1
2016-08-04T04:04:06.268Z,1000.12
2016-08-04T04:05:06.580Z,1000.13
2016-08-04T04:06:06.357Z,1000.14
2016-08-04T04:07:06.114Z,1000.17
2016-08-04T04:08:06.567Z,1000.17
2016-08-04T04:09:06.327Z,1000.24
2016-08-04T04:10:06.453Z,1000.22
2016-08-04T04:11:06.344Z,1000.21
2016-08-04T04:12:07.278Z,1000.22
2016-08-04T04:13:06.321Z,1000.21
2016-08-04T04:14:06.563Z,1000.25
2016-08-04T04:15:06.473Z,1000.18
2016-08-04T04:16:06.528Z,1000.22
2016-08-04T04:17:07.478Z,1000.22
2016-08-04T04:18:06.491Z,1000.26
2016-08-04T04:19:06.972Z,1000.21
2016-08-04T04:20:06.734Z,1000.24
2016-08-04T04:21:06.640Z,1000.21
2016-08-04T04:22:06.780Z,1000.24
2016-08-04T04:23:07.074Z,1000.26
2016-08-04T04:24:07.291Z,1000.22
2016-08-04T04:25:06.964Z,1000.23
2016-08-04T04:26:06.598Z,1000.23
2016-08-04T04:27:07.184Z,1000.19
2016-08-04T04:28:07.078Z,1000.17
2016-08-04T04:29:07.216Z,1000.19
2016-08-04T04:30:07.303Z,1000.21
2016-08-04T04:31:07.305Z,1000.19
2016-08-04T04:32:06.986Z,1000.11
2016-08-04T04:33:06.880Z,1000.08
2016-08-04T04:34:07.149Z,1000.13
2016-08-04T04:35:07.180Z,1000.08
2016-08-04T04:36:06.969Z,1000.08
2016-08-04T04:37:07.062Z,1000.11
2016-08-04T04:38:07.334Z,1000.12
2016-08-04T04:39:07.411Z,1000.12
2016-08-04T04:40:07.129Z,1000.13
2016-08-04T04:41:07.322Z,1000.13
2016-08-04T04:42:07.812Z,1000.14
2016-08-04T04:43:07.179Z,1000.16
2016-08-04T04:44:07.010Z,1000.18
2016-08-04T04:45:07.212Z,1000.2
2016-08-04T04:46:07.895Z,1000.21
2016-08-04T04:47:07.296Z,1000.23
2016-08-04T04:48:07.384Z,1000.2
2016-08-04T04:49:07.325Z,1000.28
2016-08-04T04:50:07.398Z,1000.24
2016-08-04T04:51:07.496Z,1000.19
2016-08-04T04:52:07.476Z,1000.21
2016-08-04T04:53:07.690Z,1000.19
2016-08-04T04:54:07.595Z,1000.19
2016-08-04T04:55:07.480Z,1000.23
2016-08-04T04:56:07.746Z,1000.21
2016-08-04T04:57:07.732Z,1000.22
2016-08-04T04:58:07.594Z,1000.27
2016-08-04T04:59:07.570Z,1000.29
2016-08-04T05:00:07.965Z,1000.3
2016-08-04T05:01:07.918Z,1000.3
2016-08-04T05:02:07.626Z,1000.32
2016-08-04T05:03:08.007Z,1000.34
2016-08-04T05:04:08.269Z,1000.35
2016-08-04T05:05:07.592Z,1000.31
2016-08-04T05:06:07.668Z,1000.36
2016-08-04T05:07:07.764Z,1000.38
2016-08-04T05:08:08.034Z,1000.36
2016-08-04T05:09:07.769Z,1000.36
2016-08-04T05:10:08.055Z,1000.34
2016-08-04T05:11:07.896Z,1000.34
2016-08-04T05:12:08.097Z,1000.27
2016-08-04T05:13:07.886Z,1000.24
2016-08-04T05:14:08.105Z,1000.25
2016-08-04T05:15:08.899Z,1000.27
2016-08-04T05:16:08.198Z,1000.26
2016-08-04T05:17:08.123Z,1000.32
2016-08-04T05:18:07.926Z,1000.35
2016-08-04T05:19:08.007Z,1000.35
2016-08-04T05:20:08.828Z,1000.25
2016-08-04T05:21:08.395Z,1000.33
2016-08-04T05:22:08.127Z,1000.34
2016-08-04T05:23:08.104Z,1000.31
2016-08-04T05:24:08.045Z,1000.35
2016-08-04T05:25:08.178Z,1000.31
2016-08-04T05:26:08.843Z,1000.3
2016-08-04T05:27:08.725Z,1000.35
2016-08-04T05:28:09.745Z,1000.33
2016-08-04T05:29:08.392Z,1000.37
2016-08-04T05:30:08.203Z,1000.42
2016-08-04T05:31:08.444Z,1000.4
2016-08-04T05:32:08.431Z,1000.45
2016-08-04T05:33:08.332Z,1000.49
2016-08-04T05:34:08.698Z,1000.44
2016-08-04T05:35:08.730Z,1000.4
2016-08-04T05:36:08.306Z,1000.38
2016-08-04T05:37:08.897Z,1000.41
2016-08-04T05:38:09.139Z,1000.39
2016-08-04T05:39:08.644Z,1000.42
2016-08-04T05:40:08.403Z,1000.37
2016-08-04T05:41:08.705Z,1000.37
2016-08-04T05:42:08.716Z,1000.34
2016-08-04T05:43:08.809Z,1000.32
2016-08-04T05:44:08.996Z,1000.3
2016-08-04T05:45:08.637Z,1000.32
2016-08-04T05:46:08.977Z,1000.36
2016-08-04T05:47:09.053Z,1000.31
2016-08-04T05:48:09.390Z,1000.26
2016-08-04T05:49:08.881Z,1000.27
2016-08-04T05:50:08.679Z,1000.29
2016-08-04T05:52:09.097Z,1000.34
2016-08-04T05:53:09.274Z,1000.36
2016-08-04T05:54:09.218Z,1000.41
2016-08-04T05:55:09.131Z,1000.42
2016-08-04T05:56:09.234Z,1000.41
2016-08-04T05:57:09.167Z,1000.41
2016-08-04T05:58:09.354Z,1000.36
2016-08-04T05:59:09.348Z,1000.36
2016-08-04T06:00:09.349Z,1000.37
2016-08-04T06:01:09.238Z,1000.4
2016-08-04T06:02:10.475Z,1000.44
2016-08-04T06:03:09.300Z,1000.44
2016-08-04T06:04:09.364Z,1000.49
2016-08-04T06:05:09.864Z,1000.47
2016-08-04T06:06:09.233Z,1000.54
2016-08-04T06:07:09.659Z,1000.56
2016-08-04T06:08:09.326Z,1000.62
2016-08-04T06:09:09.426Z,1000.66
2016-08-04T06:10:09.363Z,1000.71
2016-08-04T06:11:09.408Z,1000.73
2016-08-04T06:12:09.563Z,1000.74
2016-08-04T06:13:09.555Z,1000.72
2016-08-04T06:14:09.567Z,1000.74
2016-08-04T06:15:09.549Z,1000.71
2016-08-04T06:16:09.393Z,1000.72
2016-08-04T06:17:10.369Z,1000.64
2016-08-04T06:18:10.276Z,1000.57
2016-08-04T06:19:09.826Z,1000.51
2016-08-04T06:20:09.813Z,1000.52
2016-08-04T06:21:09.732Z,1000.44
2016-08-04T06:22:10.353Z,1000.44
2016-08-04T06:23:10.345Z,1000.43
2016-08-04T06:24:10.027Z,1000.45
2016-08-04T06:25:09.902Z,1000.45
2016-08-04T06:26:09.810Z,1000.51
2016-08-04T06:27:10.476Z,1000.57
2016-08-04T06:28:10.416Z,1000.59
2016-08-04T06:29:11.200Z,1000.62
2016-08-04T06:30:10.646Z,1000.57
2016-08-04T06:31:10.432Z,1000.61
2016-08-04T06:32:09.956Z,1000.6
2016-08-04T06:33:10.065Z,1000.59
2016-08-04T06:34:11.186Z,1000.63
2016-08-04T06:35:10.148Z,1000.64
2016-08-04T06:36:10.321Z,1000.65
2016-08-04T06:37:10.080Z,1000.66
2016-08-04T06:38:10.391Z,1000.7
2016-08-04T06:39:10.067Z,1000.74
2016-08-04T06:40:10.190Z,1000.75
2016-08-04T06:41:10.626Z,1000.74
2016-08-04T06:42:10.751Z,1000.73
2016-08-04T06:43:11.047Z,1000.74
2016-08-04T06:44:10.876Z,1000.78
2016-08-04T06:45:10.318Z,1000.8
2016-08-04T06:46:10.059Z,1000.8
2016-08-04T06:47:10.647Z,1000.8
2016-08-04T06:48:10.563Z,1000.83
2016-08-04T06:49:10.634Z,1000.84
2016-08-04T06:50:11.173Z,1000.79
2016-08-04T06:51:10.558Z,1000.73
2016-08-04T06:52:10.444Z,1000.79
2016-08-04T06:53:10.849Z,1000.76
2016-08-04T06:54:10.672Z,1000.81
2016-08-04T06:55:10.609Z,1000.81
2016-08-04T06:56:10.945Z,1000.83
2016-08-04T06:57:11.070Z,1000.83
2016-08-04T06:58:10.959Z,1000.84
2016-08-04T06:59:11.072Z,1000.82
2016-08-04T07:00:10.995Z,1000.81
2016-08-04T07:01:10.636Z,1000.79
2016-08-04T07:02:10.662Z,1000.79
2016-08-04T07:03:11.446Z,1000.83
2016-08-04T07:04:10.920Z,1000.88
2016-08-04T07:05:11.008Z,1000.8
2016-08-04T07:06:11.469Z,1000.82
2016-08-04T07:07:11.567Z,1000.84
2016-08-04T07:08:10.760Z,1000.87
2016-08-04T07:09:11.221Z,1000.83
2016-08-04T07:10:11.424Z,1000.81
2016-08-04T07:11:10.993Z,1000.82
2016-08-04T07:12:11.404Z,1000.86
2016-08-04T07:13:11.322Z,1000.81
2016-08-04T07:14:11.409Z,1000.87
2016-08-04T07:15:11.191Z,1000.88
2016-08-04T07:16:11.862Z,1000.94
2016-08-04T07:17:11.143Z,1000.9
2016-08-04T07:18:11.246Z,1000.88
2016-08-04T07:19:11.367Z,1000.92
2016-08-04T07:20:11.345Z,1000.95
2016-08-04T07:21:11.210Z,1000.96
2016-08-04T07:22:11.284Z,1001
2016-08-04T07:23:11.290Z,1000.99
2016-08-04T07:24:12.829Z,1001.05
2016-08-04T07:25:11.310Z,1001.07
2016-08-04T07:26:11.356Z,1001.05
2016-08-04T07:27:11.418Z,1001.05
2016-08-04T07:28:11.399Z,1001.1
2016-08-04T07:29:11.472Z,1001.09
2016-08-04T07:30:11.641Z,1001.19
2016-08-04T07:31:11.699Z,1001.16
2016-08-04T07:32:11.299Z,1001.15
2016-08-04T07:33:11.371Z,1001.21
2016-08-04T07:34:11.654Z,1001.22
2016-08-04T07:35:12.568Z,1001.18
2016-08-04T07:36:11.505Z,1001.14
2016-08-04T07:37:11.937Z,1001.14
2016-08-04T07:38:11.715Z,1001.19
2016-08-04T07:39:12.469Z,1001.21
2016-08-04T07:40:11.781Z,1001.25
2016-08-04T07:41:11.776Z,1001.29
2016-08-04T07:42:12.113Z,1001.29
2016-08-04T07:43:12.324Z,1001.27
2016-08-04T07:44:12.251Z,1001.27
2016-08-04T07:45:11.871Z,1001.25
2016-08-04T07:46:11.994Z,1001.33
2016-08-04T07:47:12.223Z,1001.29
2016-08-04T07:48:12.030Z,1001.27
2016-08-04T07:49:12.560Z,1001.33
2016-08-04T07:50:12.221Z,1001.34
2016-08-04T07:51:11.980Z,1001.31
2016-08-04T07:52:12.517Z,1001.35
2016-08-04T07:53:12.195Z,1001.35
2016-08-04T07:54:12.380Z,1001.34
2016-08-04T07:55:12.372Z,1001.31
2016-08-04T07:56:12.728Z,1001.31
2016-08-04T07:57:13.737Z,1001.28
2016-08-04T07:58:12.435Z,1001.29
2016-08-04T07:59:12.706Z,1001.23
2016-08-04T08:00:12.225Z,1001.13
2016-08-04T08:01:12.636Z,1001.21
2016-08-04T08:02:12.632Z,1001.22
2016-08-04T08:03:12.557Z,1001.25
2016-08-04T08:04:12.795Z,1001.28
2016-08-04T08:05:12.891Z,1001.35
2016-08-04T08:06:12.872Z,1001.4
2016-08-04T08:07:12.774Z,1001.38
2016-08-04T08:08:12.744Z,1001.39
2016-08-04T08:09:12.918Z,1001.45
2016-08-04T08:10:13.254Z,1001.5
2016-08-04T08:11:12.618Z,1001.49
2016-08-04T08:12:12.625Z,1001.51
2016-08-04T08:13:12.891Z,1001.52
2016-08-04T08:14:12.664Z,1001.55
2016-08-04T08:15:12.675Z,1001.51
2016-08-04T08:16:13.716Z,1001.49
2016-08-04T08:17:12.730Z,1001.52
2016-08-04T08:18:13.922Z,1001.62
2016-08-04T08:19:12.931Z,1001.61
2016-08-04T08:20:12.868Z,1001.66
2016-08-04T08:21:13.317Z,1001.58
2016-08-04T08:22:13.163Z,1001.57
2016-08-04T08:23:13.163Z,1001.55
2016-08-04T08:24:13.221Z,1001.55
2016-08-04T08:25:13.482Z,1001.51
2016-08-04T08:26:14.034Z,1001.61
2016-08-04T08:27:14.245Z,1001.56
2016-08-04T08:28:13.094Z,1001.52
2016-08-04T08:29:13.596Z,1001.45
2016-08-04T08:30:13.483Z,1001.43
2016-08-04T08:31:13.500Z,1001.45
2016-08-04T08:32:13.749Z,1001.42
2016-08-04T08:33:13.621Z,1001.38
2016-08-04T08:34:13.783Z,1001.34
2016-08-04T08:35:13.609Z,1001.4
2016-08-04T08:36:13.298Z,1001.41
2016-08-04T08:37:13.723Z,1001.43
2016-08-04T08:38:14.145Z,1001.46
2016-08-04T08:39:13.471Z,1001.54
2016-08-04T08:40:13.470Z,1001.59
2016-08-04T08:41:13.693Z,1001.58
2016-08-04T08:42:13.630Z,1001.59
2016-08-04T08:43:13.616Z,1001.66
2016-08-04T08:44:13.674Z,1001.63
2016-08-04T08:45:13.898Z,1001.66
2016-08-04T08:46:14.324Z,1001.62
2016-08-04T08:47:13.670Z,1001.66
2016-08-04T08:48:14.101Z,1001.7
2016-08-04T08:49:13.706Z,1001.73
2016-08-04T08:50:13.804Z,1001.81
2016-08-04T08:51:13.796Z,1001.79
2016-08-04T08:52:13.692Z,1001.68
2016-08-04T08:53:14.374Z,1001.62
2016-08-04T08:54:14.091Z,1001.55
2016-08-04T08:55:13.942Z,1001.75
2016-08-04T08:56:14.071Z,1001.41
2016-08-04T08:57:14.283Z,1001.46
2016-08-04T08:58:14.285Z,1001.46
2016-08-04T08:59:14.759Z,1001.5
2016-08-04T09:00:15.091Z,1001.57
2016-08-04T09:01:14.288Z,1001.5
2016-08-04T09:02:14.054Z,1001.51
2016-08-04T09:03:14.303Z,1001.54
2016-08-04T09:04:14.186Z,1001.52
2016-08-04T09:05:14.302Z,1001.54
2016-08-04T09:06:14.285Z,1001.53
2016-08-04T09:07:14.406Z,1001.6
2016-08-04T09:08:14.463Z,1001.58
2016-08-04T09:09:14.787Z,1001.56
2016-08-04T09:10:14.323Z,1001.54
2016-08-04T09:11:14.594Z,1001.55
2016-08-04T09:12:15.306Z,1001.49
2016-08-04T09:13:14.585Z,1001.49
2016-08-04T09:14:14.572Z,1001.45
2016-08-04T09:15:14.684Z,1001.48
2016-08-04T09:16:14.371Z,1001.35
2016-08-04T09:17:14.428Z,1001.37
2016-08-04T09:18:15.001Z,1001.33
2016-08-04T09:19:14.875Z,1001.38
2016-08-04T09:20:14.844Z,1001.39
2016-08-04T09:21:14.953Z,1001.48
2016-08-04T09:22:14.815Z,1001.47
2016-08-04T09:23:14.884Z,1001.46
2016-08-04T09:24:15.259Z,1001.68
2016-08-04T09:25:15.402Z,1001.65
2016-08-04T09:26:15.187Z,1001.85
2016-08-04T09:27:14.975Z,1001.7
2016-08-04T09:28:14.938Z,1001.84
2016-08-04T09:29:15.239Z,1001.89
2016-08-04T09:30:16.002Z,1002.14
2016-08-04T09:31:15.059Z,1001.93
2016-08-04T09:32:15.072Z,1001.92
2016-08-04T09:33:15.300Z,1002.06
2016-08-04T09:34:15.188Z,1001.9
2016-08-04T09:35:15.215Z,1002.02
2016-08-04T09:36:16.364Z,1002.1
2016-08-04T09:37:15.883Z,1001.92
2016-08-04T09:38:15.265Z,1001.82
2016-08-04T09:39:16.074Z,1001.84
2016-08-04T09:40:15.613Z,1001.6
2016-08-04T09:41:15.274Z,1001.57
2016-08-04T09:42:15.393Z,1001.65
2016-08-04T09:43:15.651Z,1001.67
2016-08-04T09:44:15.911Z,1001.69
2016-08-04T09:45:15.798Z,1001.68
2016-08-04T09:46:15.828Z,1001.65
2016-08-04T09:47:16.223Z,1001.77
2016-08-04T09:48:15.787Z,1001.84
2016-08-04T09:49:16.114Z,1001.81
2016-08-04T09:50:16.214Z,1001.92
2016-08-04T09:51:16.464Z,1002.02
2016-08-04T09:52:16.189Z,1002.01
2016-08-04T09:53:15.980Z,1002.11
2016-08-04T09:54:15.871Z,1002.03
2016-08-04T09:55:16.237Z,1001.96
2016-08-04T09:56:15.977Z,1001.84
2016-08-04T09:57:15.939Z,1001.69
2016-08-04T09:58:16.163Z,1001.76
2016-08-04T09:59:16.771Z,1001.75
2016-08-04T10:00:16.086Z,1001.68
2016-08-04T10:01:15.995Z,1001.62
2016-08-04T10:02:16.456Z,1001.62
2016-08-04T10:03:16.165Z,1001.61
2016-08-04T10:04:16.005Z,1001.64
2016-08-04T10:05:16.202Z,1001.63
2016-08-04T10:06:16.799Z,1001.6
2016-08-04T10:07:16.299Z,1001.62
2016-08-04T10:08:16.859Z,1001.62
2016-08-04T10:09:16.547Z,1001.58
2016-08-04T10:10:16.582Z,1001.57
2016-08-04T10:11:16.451Z,1001.45
2016-08-04T10:12:16.429Z,1001.44
2016-08-04T10:13:16.861Z,1001.39
2016-08-04T10:14:16.619Z,1001.41
2016-08-04T10:15:16.609Z,1001.49
2016-08-04T10:16:16.723Z,1001.46
2016-08-04T10:17:16.652Z,1001.59
2016-08-04T10:18:17.884Z,1001.61
2016-08-04T10:19:16.458Z,1001.59
2016-08-04T10:20:16.756Z,1001.59
2016-08-04T10:21:16.655Z,1001.58
2016-08-04T10:22:16.667Z,1001.62
2016-08-04T10:23:16.831Z,1001.69
2016-08-04T10:24:16.859Z,1001.59
2016-08-04T10:25:17.253Z,1001.61
2016-08-04T10:26:16.710Z,1001.62
2016-08-04T10:27:16.926Z,1001.7
2016-08-04T10:28:16.824Z,1001.65
2016-08-04T10:29:17.246Z,1001.66
2016-08-04T10:30:17.298Z,1001.6
2016-08-04T10:31:17.251Z,1001.68
2016-08-04T10:32:17.097Z,1001.6
2016-08-04T10:33:17.093Z,1001.59
2016-08-04T10:34:17.356Z,1001.58
2016-08-04T10:35:17.392Z,1001.54
2016-08-04T10:36:17.413Z,1001.55
2016-08-04T10:38:17.363Z,1001.63
2016-08-04T10:39:17.183Z,1001.62
2016-08-04T10:40:17.961Z,1001.7
2016-08-04T10:41:17.523Z,1001.71
2016-08-04T10:42:17.497Z,1001.73
2016-08-04T10:43:17.675Z,1001.63
2016-08-04T10:44:17.441Z,1001.69
2016-08-04T10:45:17.599Z,1001.65
2016-08-04T10:46:17.807Z,1001.68
2016-08-04T10:47:17.486Z,1001.73
2016-08-04T10:48:17.611Z,1001.75
2016-08-04T10:49:17.654Z,1001.68
2016-08-04T10:50:18.057Z,1001.59
2016-08-04T10:51:18.202Z,1001.52
2016-08-04T10:53:17.739Z,1001.51
2016-08-04T10:54:17.924Z,1001.5
2016-08-04T10:55:18.196Z,1001.68
2016-08-04T10:56:17.944Z,1001.74
2016-08-04T10:57:17.992Z,1001.73
2016-08-04T10:58:17.891Z,1001.65
2016-08-04T10:59:18.447Z,1001.65
2016-08-04T11:00:18.279Z,1001.81
2016-08-04T11:01:18.025Z,1001.63
2016-08-04T11:02:18.291Z,1001.8
2016-08-04T11:03:18.283Z,1001.6
2016-08-04T11:04:18.247Z,1001.81
2016-08-04T11:05:18.586Z,1001.81
2016-08-04T11:06:18.694Z,1001.57
2016-08-04T11:08:18.371Z,1001.62
2016-08-04T11:09:18.270Z,1001.57
2016-08-04T11:10:19.347Z,1001.5
2016-08-04T11:11:18.237Z,1001.6
2016-08-04T11:12:18.827Z,1001.66
2016-08-04T11:13:18.616Z,1001.49
2016-08-04T11:14:18.625Z,1001.55
2016-08-04T11:15:18.919Z,1001.55
2016-08-04T11:16:18.593Z,1001.65
2016-08-04T11:17:19.035Z,1001.6
2016-08-04T11:18:18.632Z,1001.61
2016-08-04T11:19:19.023Z,1001.74
2016-08-04T11:20:18.921Z,1001.71
2016-08-04T11:21:19.102Z,1001.52
2016-08-04T11:22:18.938Z,1001.61
2016-08-04T11:23:18.650Z,1001.58
2016-08-04T11:24:19.293Z,1001.59
2016-08-04T11:25:18.963Z,1001.82
2016-08-04T11:26:19.143Z,1001.7
2016-08-04T11:27:19.830Z,1001.63
2016-08-04T11:28:18.864Z,1001.75
2016-08-04T11:29:19.042Z,1001.66
2016-08-04T11:30:19.621Z,1001.71
2016-08-04T11:31:19.112Z,1001.68
2016-08-04T11:32:19.145Z,1001.66
2016-08-04T11:33:19.229Z,1001.52
2016-08-04T11:34:19.522Z,1001.6
2016-08-04T11:35:19.111Z,1001.48
2016-08-04T11:36:20.071Z,1001.32
2016-08-04T11:37:19.664Z,1001.38
2016-08-04T11:38:19.480Z,1001.27
2016-08-04T11:39:19.520Z,1001.24
2016-08-04T11:40:19.818Z,1001.22
2016-08-04T11:41:19.814Z,1001.26
2016-08-04T11:42:20.112Z,1001.25
2016-08-04T11:43:19.625Z,1001.25
2016-08-04T11:44:19.679Z,1001.27
2016-08-04T11:45:20.033Z,1001.35
2016-08-04T11:46:19.807Z,1001.41
2016-08-04T11:47:19.878Z,1001.39
2016-08-04T11:48:19.693Z,1001.39
2016-08-04T11:49:19.931Z,1001.35
2016-08-04T11:50:19.839Z,1001.43
2016-08-04T11:51:20.424Z,1001.44
2016-08-04T11:53:19.891Z,1001.52
2016-08-04T11:54:19.721Z,1001.51
2016-08-04T11:55:19.978Z,1001.6
2016-08-04T11:56:20.175Z,1001.6
2016-08-04T11:57:20.601Z,1001.6
2016-08-04T11:58:19.915Z,1001.48
2016-08-04T11:59:20.238Z,1001.55
2016-08-04T12:00:20.199Z,1001.5
2016-08-04T12:01:21.731Z,1001.55
2016-08-04T12:02:20.320Z,1001.56
2016-08-04T12:03:20.834Z,1001.4
2016-08-04T12:04:20.306Z,1001.32
2016-08-04T12:05:20.767Z,1001.39
2016-08-04T12:06:20.823Z,1001.34
2016-08-04T12:07:20.296Z,1001.33
2016-08-04T12:08:20.734Z,1001.5
2016-08-04T12:09:20.749Z,1001.49
2016-08-04T12:10:20.987Z,1001.47
2016-08-04T12:11:20.949Z,1001.5
2016-08-04T12:12:21.232Z,1001.52
2016-08-04T12:13:20.987Z,1001.42
2016-08-04T12:14:20.429Z,1001.43
2016-08-04T12:15:20.608Z,1001.65